Time;durP1;ratioP1;P1;durP2;ratioP2;P2;SDS_P1;SDS_P2;PMS_P1;PMS_P2;Temp;Humidity;BMP_temperature;BMP_pressure;BME280_temperature;BME280_humidity;BME280_pressure;Samples;Min_cycle;Max_cycle;Signal;HPM_P1;HPM_P2
2022/10/20 00:02:23;;;;;;;;;;;7.80;99.90;;;;;;5053714;28;20331;-64
2022/10/20 00:04:50;;;;;;;;;;;7.80;99.90;;;;;;5053706;28;20003;-63
2022/10/20 00:07:28;;;;;;;;;;;7.80;99.90;;;;;;5053967;28;19925;-63
2022/10/20 00:09:54;;;;;;;;;;;7.80;99.90;;;;;;5054054;28;20293;-64
2022/10/20 00:12:19;;;;;;;;;;;7.80;99.90;;;;;;5053704;28;20280;-64
2022/10/20 00:14:51;;;;;;;;;;;7.80;99.90;;;;;;5053404;28;19916;-63
2022/10/20 00:17:16;;;;;;;;;;;7.70;99.90;;;;;;5053590;28;19927;-64
2022/10/20 00:19:46;;;;;;;;;;;7.70;99.90;;;;;;5053527;28;20003;-65
2022/10/20 00:22:11;;;;;;;;;;;7.80;99.90;;;;;;5053367;28;19960;-64
2022/10/20 00:24:37;;;;;;;;;;;8.00;99.90;;;;;;5053297;28;19952;-64
2022/10/20 00:27:06;;;;;;;;;;;7.70;99.90;;;;;;5053599;28;20011;-63
2022/10/20 00:29:31;;;;;;;;;;;7.60;99.90;;;;;;5053237;28;19924;-64
2022/10/20 00:31:58;;;;;;;;;;;7.80;99.90;;;;;;5052087;28;19974;-63
2022/10/20 00:34:23;;;;;;;;;;;7.60;99.90;;;;;;5053128;28;19921;-63
2022/10/20 00:36:49;;;;;;;;;;;7.70;99.90;;;;;;5055409;28;19923;-64
2022/10/20 00:39:17;;;;;;;;;;;7.70;99.90;;;;;;5057174;28;19916;-64
2022/10/20 00:41:42;;;;;;;;;;;7.60;99.90;;;;;;5057552;28;19917;-64
2022/10/20 00:44:26;;;;;;;;;;;7.70;99.90;;;;;;5057437;28;20386;-64
2022/10/20 00:46:56;;;;;;;;;;;7.60;99.90;;;;;;5057245;28;19939;-64
2022/10/20 00:49:23;;;;;;;;;;;7.60;99.90;;;;;;5057177;28;19971;-64
2022/10/20 00:51:50;;;;;;;;;;;7.50;99.90;;;;;;5056936;28;19923;-63
2022/10/20 00:54:19;;;;;;;;;;;7.60;99.90;;;;;;5056997;28;20380;-63
2022/10/20 00:56:46;;;;;;;;;;;7.50;99.90;;;;;;5057020;28;19920;-66
2022/10/20 00:59:13;;;;;;;;;;;7.50;99.90;;;;;;5057149;28;19917;-64
2022/10/20 01:01:40;;;;;;;;;;;7.50;99.90;;;;;;5056958;28;19924;-64
2022/10/20 01:04:12;;;;;;;;;;;7.50;99.90;;;;;;5056955;28;19921;-64
2022/10/20 01:06:38;;;;;;;;;;;7.50;99.90;;;;;;5057068;28;19924;-63
2022/10/20 01:09:04;;;;;;;;;;;7.40;99.90;;;;;;5056948;28;19916;-63
2022/10/20 01:11:32;;;;;;;;;;;7.50;99.90;;;;;;5056894;28;19917;-63
2022/10/20 01:14:19;;;;;;;;;;;7.40;99.90;;;;;;5056850;28;19921;-64
2022/10/20 01:16:54;;;;;;;;;;;7.40;99.90;;;;;;5045671;28;20385;-65
2022/10/20 01:19:20;;;;;;;;;;;7.40;99.90;;;;;;5056872;28;20007;-64
2022/10/20 01:21:55;;;;;;;;;;;7.30;99.90;;;;;;5056808;28;20345;-64
2022/10/20 01:24:44;;;;;;;;;;;7.40;99.90;;;;;;5056590;28;20284;-64
2022/10/20 01:27:28;;;;;;;;;;;7.40;99.90;;;;;;5055977;28;19917;-63
2022/10/20 01:30:07;;;;;;;;;;;7.30;99.90;;;;;;5056675;28;20219;-64
2022/10/20 01:32:37;;;;;;;;;;;7.30;99.90;;;;;;5056343;28;19927;-63
2022/10/20 01:35:22;;;;;;;;;;;7.30;99.90;;;;;;5056504;28;19917;-63
2022/10/20 01:37:57;;;;;;;;;;;7.30;99.90;;;;;;5055934;28;19990;-64
2022/10/20 01:40:30;;;;;;;;;;;7.20;99.90;;;;;;5056400;28;20040;-64
2022/10/20 01:43:00;;;;;;;;;;;7.20;99.90;;;;;;5056411;28;19921;-64
2022/10/20 01:45:28;;;;;;;;;;;7.30;99.90;;;;;;5056234;28;20276;-63
2022/10/20 01:47:54;;;;;;;;;;;7.30;99.90;;;;;;5054910;28;19916;-63
2022/10/20 01:50:20;;;;;;;;;;;7.20;99.90;;;;;;5056522;28;19917;-64
2022/10/20 01:52:46;;;;;;;;;;;7.10;99.90;;;;;;5056224;28;19923;-63
2022/10/20 01:55:13;;;;;;;;;;;7.30;99.90;;;;;;5055950;28;20376;-63
2022/10/20 01:57:41;;;;;;;;;;;7.10;99.90;;;;;;5055958;28;19916;-63
2022/10/20 02:00:14;;;;;;;;;;;7.20;99.90;;;;;;5055632;28;19916;-63
2022/10/20 02:02:40;;;;;;;;;;;7.10;99.90;;;;;;5055661;28;20364;-64
2022/10/20 02:05:08;;;;;;;;;;;7.10;99.90;;;;;;5055817;28;19920;-64
2022/10/20 02:07:34;;;;;;;;;;;7.00;99.90;;;;;;5055280;28;19939;-63
2022/10/20 02:10:11;;;;;;;;;;;6.90;99.90;;;;;;5055832;28;20361;-63
2022/10/20 02:12:43;;;;;;;;;;;6.90;99.90;;;;;;5055749;28;20007;-64
2022/10/20 02:15:10;;;;;;;;;;;6.90;99.90;;;;;;5055508;28;19916;-64
2022/10/20 02:17:37;;;;;;;;;;;7.00;99.90;;;;;;5055872;28;19951;-64
2022/10/20 02:20:07;;;;;;;;;;;6.80;99.90;;;;;;5055516;28;20388;-63
2022/10/20 02:22:38;;;;;;;;;;;6.90;99.90;;;;;;5055412;28;20018;-63
2022/10/20 02:25:13;;;;;;;;;;;6.90;99.90;;;;;;5055403;28;19970;-64
2022/10/20 02:27:40;;;;;;;;;;;6.90;99.90;;;;;;5055266;28;19920;-64
2022/10/20 02:30:11;;;;;;;;;;;6.70;99.90;;;;;;5087846;28;19916;-63
2022/10/20 02:32:38;;;;;;;;;;;6.80;99.90;;;;;;5053877;28;20311;-64
2022/10/20 02:35:05;;;;;;;;;;;6.80;99.90;;;;;;5055302;28;19921;-63
2022/10/20 02:37:31;;;;;;;;;;;6.90;99.90;;;;;;5055007;28;20269;-63
2022/10/20 02:39:57;;;;;;;;;;;6.80;99.90;;;;;;5055229;28;19927;-66
2022/10/20 02:42:22;;;;;;;;;;;6.70;99.90;;;;;;5054947;28;20365;-66
2022/10/20 02:44:51;;;;;;;;;;;6.70;99.90;;;;;;5055236;28;19924;-64
2022/10/20 02:47:19;;;;;;;;;;;6.70;99.90;;;;;;5055165;28;19928;-63
2022/10/20 02:49:45;;;;;;;;;;;6.90;99.90;;;;;;5055239;28;19917;-63
2022/10/20 02:52:14;;;;;;;;;;;6.70;99.90;;;;;;5054864;28;19917;-64
2022/10/20 02:54:40;;;;;;;;;;;6.80;99.90;;;;;;5054403;28;19916;-63
2022/10/20 02:57:05;;;;;;;;;;;6.80;99.90;;;;;;5055120;28;19923;-63
2022/10/20 02:59:33;;;;;;;;;;;6.90;99.90;;;;;;5054692;28;19917;-63
2022/10/20 03:02:00;;;;;;;;;;;6.70;99.90;;;;;;5054934;28;19917;-64
2022/10/20 03:04:28;;;;;;;;;;;6.80;99.90;;;;;;5054708;28;20031;-64
2022/10/20 03:06:53;;;;;;;;;;;6.70;99.90;;;;;;5054636;28;19964;-64
2022/10/20 03:09:19;;;;;;;;;;;7.00;99.90;;;;;;5054410;28;19951;-63
2022/10/20 03:11:46;;;;;;;;;;;6.70;99.90;;;;;;5054857;28;20039;-64
2022/10/20 03:14:11;;;;;;;;;;;6.70;99.90;;;;;;5054676;28;20353;-63
2022/10/20 03:16:37;;;;;;;;;;;6.40;99.90;;;;;;5054574;28;19928;-64
2022/10/20 03:19:03;;;;;;;;;;;6.60;99.90;;;;;;5054530;28;20304;-64
2022/10/20 03:21:29;;;;;;;;;;;6.60;99.90;;;;;;5054137;28;19917;-64
2022/10/20 03:24:04;;;;;;;;;;;6.60;99.90;;;;;;5053665;28;19924;-64
2022/10/20 03:26:29;;;;;;;;;;;6.80;99.90;;;;;;5052655;28;19916;-64
2022/10/20 03:28:55;;;;;;;;;;;6.60;99.90;;;;;;5052735;28;20003;-63
2022/10/20 03:31:21;;;;;;;;;;;6.60;99.90;;;;;;5052073;28;19920;-64
2022/10/20 03:33:47;;;;;;;;;;;6.60;99.90;;;;;;5052334;28;19920;-64
2022/10/20 03:36:15;;;;;;;;;;;6.60;99.90;;;;;;5050893;28;20388;-64
2022/10/20 03:38:42;;;;;;;;;;;6.70;99.90;;;;;;5052059;28;20428;-64
2022/10/20 03:41:08;;;;;;;;;;;6.70;99.90;;;;;;5053960;28;19927;-64
2022/10/20 03:43:38;;;;;;;;;;;6.70;99.90;;;;;;5054100;28;19921;-64
2022/10/20 03:46:05;;;;;;;;;;;6.70;99.90;;;;;;5053894;28;20061;-64
2022/10/20 03:48:31;;;;;;;;;;;6.50;99.90;;;;;;5054063;28;20288;-64
2022/10/20 03:50:58;;;;;;;;;;;6.60;99.90;;;;;;5052497;28;19947;-64
2022/10/20 03:53:24;;;;;;;;;;;6.70;99.90;;;;;;5053761;28;20384;-64
2022/10/20 03:55:53;;;;;;;;;;;6.60;99.90;;;;;;5053798;28;19917;-64
2022/10/20 03:58:18;;;;;;;;;;;6.80;99.90;;;;;;5053914;28;20476;-64
2022/10/20 04:00:44;;;;;;;;;;;6.80;99.90;;;;;;5054062;28;20410;-64
2022/10/20 04:03:11;;;;;;;;;;;6.60;99.90;;;;;;5052458;28;19921;-64
2022/10/20 04:05:37;;;;;;;;;;;6.80;99.90;;;;;;5053489;28;20074;-64
2022/10/20 04:08:03;;;;;;;;;;;6.70;99.90;;;;;;5053576;28;19968;-64
2022/10/20 04:10:30;;;;;;;;;;;6.70;99.90;;;;;;5053039;28;19917;-64
2022/10/20 04:12:59;;;;;;;;;;;6.70;99.90;;;;;;5053412;28;19995;-64
2022/10/20 04:15:26;;;;;;;;;;;6.80;99.90;;;;;;5052382;28;19948;-63
2022/10/20 04:17:52;;;;;;;;;;;6.80;99.90;;;;;;5053810;28;19916;-64
2022/10/20 04:20:18;;;;;;;;;;;6.90;99.90;;;;;;5053398;28;19923;-64
2022/10/20 04:22:46;;;;;;;;;;;6.80;99.90;;;;;;5053817;28;19921;-64
2022/10/20 04:25:15;;;;;;;;;;;6.70;99.90;;;;;;5053629;28;19920;-64
2022/10/20 04:27:41;;;;;;;;;;;6.70;99.90;;;;;;5053225;28;20012;-64
2022/10/20 04:30:09;;;;;;;;;;;6.80;99.90;;;;;;5053328;28;19942;-59
2022/10/20 04:32:36;;;;;;;;;;;6.70;99.90;;;;;;5052673;28;19925;-59
2022/10/20 04:35:02;;;;;;;;;;;6.80;99.90;;;;;;5052866;28;19917;-58
2022/10/20 04:37:29;;;;;;;;;;;6.80;99.90;;;;;;5053290;28;19927;-58
2022/10/20 04:39:56;;;;;;;;;;;6.80;99.90;;;;;;5053337;28;20394;-58
2022/10/20 04:42:22;;;;;;;;;;;6.70;99.90;;;;;;5053098;28;20399;-58
2022/10/20 04:44:49;;;;;;;;;;;6.60;99.90;;;;;;5053338;28;19923;-58
2022/10/20 04:47:15;;;;;;;;;;;6.60;99.90;;;;;;5053138;28;19916;-64
2022/10/20 04:49:40;;;;;;;;;;;6.70;99.90;;;;;;5053444;28;19955;-64
2022/10/20 04:52:06;;;;;;;;;;;6.60;99.90;;;;;;5053194;28;19985;-63
2022/10/20 04:54:33;;;;;;;;;;;6.70;99.90;;;;;;5053307;28;19924;-64
2022/10/20 04:57:05;;;;;;;;;;;6.50;99.90;;;;;;5053283;28;19917;-64
2022/10/20 04:59:30;;;;;;;;;;;6.70;99.90;;;;;;5053131;28;19917;-64
2022/10/20 05:01:56;;;;;;;;;;;6.70;99.90;;;;;;5052959;28;19917;-64
2022/10/20 05:04:22;;;;;;;;;;;6.60;99.90;;;;;;5053093;28;20033;-59
2022/10/20 05:06:48;;;;;;;;;;;6.70;99.90;;;;;;5053252;28;19924;-58
2022/10/20 05:09:14;;;;;;;;;;;6.70;99.90;;;;;;5053134;28;19917;-59
2022/10/20 05:11:40;;;;;;;;;;;6.70;99.90;;;;;;5052967;28;19917;-63
2022/10/20 05:14:07;;;;;;;;;;;6.60;99.90;;;;;;5053080;28;20309;-64
2022/10/20 05:16:36;;;;;;;;;;;6.70;99.90;;;;;;5052835;28;19917;-64
2022/10/20 05:19:02;;;;;;;;;;;6.60;99.90;;;;;;5053232;28;19923;-64
2022/10/20 05:21:29;;;;;;;;;;;6.60;99.90;;;;;;5053712;28;19916;-64
2022/10/20 05:23:58;;;;;;;;;;;6.60;99.90;;;;;;5055304;28;19921;-65
2022/10/20 05:26:25;;;;;;;;;;;6.50;99.90;;;;;;5056768;28;19916;-64
2022/10/20 05:28:51;;;;;;;;;;;6.50;99.90;;;;;;5056414;28;20003;-63
2022/10/20 05:31:17;;;;;;;;;;;6.60;99.90;;;;;;5056991;28;20419;-65
2022/10/20 05:33:47;;;;;;;;;;;6.70;99.90;;;;;;5056581;28;20051;-64
2022/10/20 05:36:14;;;;;;;;;;;6.60;99.90;;;;;;5056392;28;20384;-64
2022/10/20 05:38:41;;;;;;;;;;;6.60;99.90;;;;;;5055242;28;19924;-64
2022/10/20 05:41:27;;;;;;;;;;;6.50;99.90;;;;;;5056261;28;20376;-64
2022/10/20 05:43:56;;;;;;;;;;;6.50;99.90;;;;;;5054583;28;19921;-64
2022/10/20 05:46:26;;;;;;;;;;;6.60;99.90;;;;;;5056233;28;20388;-64
2022/10/20 05:48:54;;;;;;;;;;;6.50;99.90;;;;;;5055965;28;20309;-64
2022/10/20 05:51:26;;;;;;;;;;;6.60;99.90;;;;;;5055747;28;20280;-64
2022/10/20 05:53:56;;;;;;;;;;;6.40;99.90;;;;;;5055915;28;20292;-64
2022/10/20 05:56:23;;;;;;;;;;;6.60;99.90;;;;;;5055950;28;19921;-64
2022/10/20 05:58:49;;;;;;;;;;;6.40;99.90;;;;;;5056060;28;19962;-64
2022/10/20 06:01:19;;;;;;;;;;;6.40;99.90;;;;;;5056000;28;19923;-64
2022/10/20 06:03:49;;;;;;;;;;;6.60;99.90;;;;;;5055769;28;20011;-64
2022/10/20 06:06:29;;;;;;;;;;;6.60;99.90;;;;;;5056090;28;19972;-64
2022/10/20 06:08:59;;;;;;;;;;;6.80;99.90;;;;;;5054304;28;19970;-64
2022/10/20 06:11:25;;;;;;;;;;;6.60;99.90;;;;;;5053997;28;19924;-64
2022/10/20 06:13:53;;;;;;;;;;;6.60;99.90;;;;;;5054528;28;19924;-65
2022/10/20 06:16:20;;;;;;;;;;;6.40;99.90;;;;;;5055109;28;20383;-64
2022/10/20 06:18:49;;;;;;;;;;;6.50;99.90;;;;;;5054305;28;19963;-64
2022/10/20 06:21:25;;;;;;;;;;;6.40;99.90;;;;;;5053682;28;19952;-65
2022/10/20 06:23:59;;;;;;;;;;;6.40;99.90;;;;;;5054126;28;19921;-64
2022/10/20 06:26:32;;;;;;;;;;;6.50;99.90;;;;;;5053571;28;19939;-64
2022/10/20 06:28:57;;;;;;;;;;;6.60;99.90;;;;;;5052182;28;19963;-63
2022/10/20 06:31:28;;;;;;;;;;;6.50;99.90;;;;;;5053575;28;19917;-64
2022/10/20 06:33:55;;;;;;;;;;;6.70;99.90;;;;;;5053932;28;20379;-64
2022/10/20 06:36:21;;;;;;;;;;;6.70;99.90;;;;;;5055173;28;19994;-64
2022/10/20 06:38:48;;;;;;;;;;;6.70;99.90;;;;;;5055116;28;20372;-64
2022/10/20 06:41:14;;;;;;;;;;;6.70;99.90;;;;;;5055257;28;19971;-64
2022/10/20 06:43:40;;;;;;;;;;;6.80;99.90;;;;;;5045274;28;19991;-64
2022/10/20 06:46:07;;;;;;;;;;;6.90;99.90;;;;;;5035020;28;20270;-64
2022/10/20 06:48:35;;;;;;;;;;;6.70;99.90;;;;;;5040544;28;19917;-64
2022/10/20 06:51:01;;;;;;;;;;;6.80;99.90;;;;;;5051239;28;19916;-64
2022/10/20 06:53:28;;;;;;;;;;;6.80;99.90;;;;;;5054935;28;19921;-59
2022/10/20 06:56:02;;;;;;;;;;;6.80;99.90;;;;;;5013192;28;19924;-58
2022/10/20 06:58:28;;;;;;;;;;;6.80;99.90;;;;;;5033471;28;20464;-59
2022/10/20 07:01:13;;;;;;;;;;;7.10;99.90;;;;;;5049146;28;19960;-59
2022/10/20 07:03:42;;;;;;;;;;;7.00;99.90;;;;;;5053036;28;19924;-59
2022/10/20 07:06:09;;;;;;;;;;;7.00;99.90;;;;;;5052166;28;19916;-58
2022/10/20 07:08:36;;;;;;;;;;;7.10;99.90;;;;;;5053395;28;19917;-63
2022/10/20 07:11:05;;;;;;;;;;;7.20;99.90;;;;;;5053737;28;19917;-64
2022/10/20 07:13:35;;;;;;;;;;;7.20;99.90;;;;;;5053498;28;20353;-63
2022/10/20 07:16:03;;;;;;;;;;;7.30;99.90;;;;;;5053526;28;19917;-64
2022/10/20 07:18:29;;;;;;;;;;;7.30;99.90;;;;;;5051697;28;20064;-64
2022/10/20 07:20:56;;;;;;;;;;;7.30;99.90;;;;;;5045213;28;19917;-59
2022/10/20 07:23:25;;;;;;;;;;;7.40;99.90;;;;;;5048777;28;19921;-58
2022/10/20 07:26:05;;;;;;;;;;;7.40;99.90;;;;;;5044556;28;19916;-58
2022/10/20 07:28:34;;;;;;;;;;;7.50;99.90;;;;;;5034632;28;19917;-64
2022/10/20 07:31:04;;;;;;;;;;;7.50;99.90;;;;;;5034206;28;19963;-64
2022/10/20 07:33:31;;;;;;;;;;;7.50;99.90;;;;;;5039304;28;20385;-65
2022/10/20 07:35:57;;;;;;;;;;;7.50;99.90;;;;;;5052832;28;19920;-65
2022/10/20 07:38:29;;;;;;;;;;;7.60;99.90;;;;;;5054260;28;19920;-64
2022/10/20 07:41:01;;;;;;;;;;;7.50;99.90;;;;;;5054160;28;19917;-59
2022/10/20 07:43:27;;;;;;;;;;;7.60;99.90;;;;;;5053918;28;20026;-59
2022/10/20 07:45:55;;;;;;;;;;;7.60;99.90;;;;;;5053435;28;19920;-58
2022/10/20 07:48:21;;;;;;;;;;;7.70;99.90;;;;;;5045398;28;19959;-59
2022/10/20 07:50:47;;;;;;;;;;;7.70;99.90;;;;;;5042347;28;20284;-59
2022/10/20 07:53:13;;;;;;;;;;;7.70;99.90;;;;;;5034233;28;20024;-59
2022/10/20 07:55:40;;;;;;;;;;;7.80;99.90;;;;;;5034010;28;20381;-59
2022/10/20 07:58:05;;;;;;;;;;;7.80;99.90;;;;;;5032470;28;19917;-59
2022/10/20 08:00:33;;;;;;;;;;;7.90;99.90;;;;;;5034291;28;19993;-59
2022/10/20 08:03:00;;;;;;;;;;;7.90;99.90;;;;;;5033933;28;19921;-59
2022/10/20 08:05:28;;;;;;;;;;;8.00;99.90;;;;;;5033606;28;19917;-59
2022/10/20 08:07:54;;;;;;;;;;;8.10;99.90;;;;;;5051637;28;20396;-59
2022/10/20 08:10:20;;;;;;;;;;;8.30;99.90;;;;;;5053722;28;19923;-59
2022/10/20 08:12:46;;;;;;;;;;;8.20;99.90;;;;;;5053480;28;19916;-59
2022/10/20 08:15:13;;;;;;;;;;;8.30;99.90;;;;;;5053454;28;19923;-59
2022/10/20 08:17:38;;;;;;;;;;;8.30;99.90;;;;;;5053794;28;19929;-59
2022/10/20 08:20:04;;;;;;;;;;;8.40;99.90;;;;;;5053736;28;19986;-59
2022/10/20 08:22:30;;;;;;;;;;;8.50;99.90;;;;;;5053514;28;19921;-59
2022/10/20 08:24:55;;;;;;;;;;;8.60;99.90;;;;;;5052125;28;19942;-59
2022/10/20 08:27:22;;;;;;;;;;;8.70;99.90;;;;;;5053173;28;19953;-59
2022/10/20 08:29:52;;;;;;;;;;;8.60;99.90;;;;;;5053171;28;19917;-59
2022/10/20 08:32:18;;;;;;;;;;;8.60;99.90;;;;;;5053101;28;19928;-59
2022/10/20 08:34:45;;;;;;;;;;;8.20;99.90;;;;;;5053187;28;19916;-59
2022/10/20 08:37:10;;;;;;;;;;;8.80;99.90;;;;;;5053508;28;19920;-59
2022/10/20 08:39:40;;;;;;;;;;;8.90;99.90;;;;;;5051980;28;19921;-59
2022/10/20 08:42:22;;;;;;;;;;;8.90;99.90;;;;;;5053270;28;19924;-65
2022/10/20 08:44:48;;;;;;;;;;;9.20;99.90;;;;;;5053057;28;20281;-65
2022/10/20 08:47:18;;;;;;;;;;;9.60;99.90;;;;;;5053099;28;19917;-66
2022/10/20 08:49:46;;;;;;;;;;;9.60;99.90;;;;;;5053087;28;20007;-66
2022/10/20 08:52:14;;;;;;;;;;;9.50;99.90;;;;;;5051614;28;19917;-65
2022/10/20 08:54:40;;;;;;;;;;;9.80;99.90;;;;;;5053451;28;20387;-66
2022/10/20 08:57:21;;;;;;;;;;;9.90;99.90;;;;;;5055029;28;19917;-65
2022/10/20 08:59:49;;;;;;;;;;;10.10;99.90;;;;;;5057407;28;19920;-66
2022/10/20 09:02:15;;;;;;;;;;;10.10;99.90;;;;;;5057158;28;20007;-66
2022/10/20 09:04:44;;;;;;;;;;;10.30;99.90;;;;;;5057008;28;20043;-67
2022/10/20 09:07:28;;;;;;;;;;;10.30;99.90;;;;;;5057003;28;20008;-66
2022/10/20 09:09:59;;;;;;;;;;;10.40;99.90;;;;;;5057110;28;19916;-59
2022/10/20 09:12:26;;;;;;;;;;;10.60;99.90;;;;;;5053550;28;19966;-59
2022/10/20 09:14:51;;;;;;;;;;;10.60;99.90;;;;;;5046128;28;19917;-59
2022/10/20 09:17:18;;;;;;;;;;;10.40;99.90;;;;;;5044582;28;19927;-60
2022/10/20 09:19:47;;;;;;;;;;;10.60;99.90;;;;;;5036724;28;19971;-66
2022/10/20 09:22:16;;;;;;;;;;;10.50;99.90;;;;;;5036600;28;19928;-66
2022/10/20 09:24:42;;;;;;;;;;;10.50;99.90;;;;;;5035660;28;19968;-66
2022/10/20 09:27:16;;;;;;;;;;;10.50;99.90;;;;;;5036636;28;19971;-66
2022/10/20 09:29:44;;;;;;;;;;;10.50;99.90;;;;;;5036427;28;19997;-66
2022/10/20 09:32:28;;;;;;;;;;;10.60;99.90;;;;;;5036178;28;19971;-66
2022/10/20 09:35:10;;;;;;;;;;;10.60;99.90;;;;;;5036110;28;19917;-67
2022/10/20 09:37:36;;;;;;;;;;;10.70;99.90;;;;;;5068790;28;19924;-66
2022/10/20 09:40:02;;;;;;;;;;;10.70;99.90;;;;;;5035638;28;19917;-66
2022/10/20 09:42:34;;;;;;;;;;;10.70;99.90;;;;;;5034949;28;19920;-67
2022/10/20 09:45:15;;;;;;;;;;;10.80;99.90;;;;;;5036092;28;20020;-66
2022/10/20 09:47:45;;;;;;;;;;;11.00;99.90;;;;;;5035800;28;20016;-66
2022/10/20 09:50:30;;;;;;;;;;;11.00;99.90;;;;;;5035754;28;19916;-59
2022/10/20 09:53:01;;;;;;;;;;;11.00;99.90;;;;;;5035566;28;19936;-59
2022/10/20 09:55:30;;;;;;;;;;;11.10;99.90;;;;;;5035678;28;19924;-59
2022/10/20 09:58:01;;;;;;;;;;;11.20;99.90;;;;;;5036166;28;19924;-59
2022/10/20 10:00:30;;;;;;;;;;;11.10;99.90;;;;;;5036952;28;19927;-59
2022/10/20 10:03:19;;;;;;;;;;;11.30;99.90;;;;;;5036026;28;19927;-59
2022/10/20 10:05:52;;;;;;;;;;;11.20;99.90;;;;;;5035788;28;19944;-59
2022/10/20 10:08:19;;;;;;;;;;;11.40;99.90;;;;;;5034914;28;19920;-60
2022/10/20 10:10:56;;;;;;;;;;;11.50;99.90;;;;;;5035980;28;19947;-59
2022/10/20 10:13:25;;;;;;;;;;;11.40;99.90;;;;;;5036095;28;19921;-60
2022/10/20 10:15:58;;;;;;;;;;;11.60;99.90;;;;;;5035693;28;20325;-60
2022/10/20 10:18:24;;;;;;;;;;;11.70;99.90;;;;;;5035524;28;19960;-60
2022/10/20 10:21:04;;;;;;;;;;;11.70;99.90;;;;;;5035774;28;19960;-61
2022/10/20 10:23:32;;;;;;;;;;;11.80;99.90;;;;;;5035370;28;19972;-60
2022/10/20 10:25:58;;;;;;;;;;;11.90;99.90;;;;;;5035549;28;19917;-59
2022/10/20 10:28:30;;;;;;;;;;;12.00;99.90;;;;;;5035430;28;20324;-59
2022/10/20 10:31:17;;;;;;;;;;;12.20;99.90;;;;;;5035040;28;20004;-60
2022/10/20 10:33:44;;;;;;;;;;;12.40;99.90;;;;;;5035074;28;20365;-60
2022/10/20 10:36:17;;;;;;;;;;;12.50;99.90;;;;;;5035188;28;19917;-60
2022/10/20 10:38:43;;;;;;;;;;;12.70;99.90;;;;;;5033187;28;19917;-60
2022/10/20 10:41:22;;;;;;;;;;;12.80;99.90;;;;;;5033870;28;19917;-59
2022/10/20 10:43:51;;;;;;;;;;;13.00;99.90;;;;;;5035232;28;19921;-59
2022/10/20 10:46:22;;;;;;;;;;;13.10;99.90;;;;;;5043083;28;20278;-59
2022/10/20 10:48:57;;;;;;;;;;;13.20;99.90;;;;;;5047565;28;19916;-59
2022/10/20 10:51:31;;;;;;;;;;;13.20;99.90;;;;;;5053615;28;19916;-60
2022/10/20 10:54:18;;;;;;;;;;;13.40;99.90;;;;;;5053789;28;20008;-60
2022/10/20 10:56:57;;;;;;;;;;;13.40;99.90;;;;;;5041066;28;20593;-59
2022/10/20 10:59:34;;;;;;;;;;;13.40;99.90;;;;;;5043461;28;19966;-60
2022/10/20 11:02:02;;;;;;;;;;;13.30;99.90;;;;;;5053767;28;19925;-59
2022/10/20 11:04:35;;;;;;;;;;;13.30;99.90;;;;;;5053212;28;19928;-60
2022/10/20 11:07:03;;;;;;;;;;;13.30;99.90;;;;;;5054380;28;19916;-60
2022/10/20 11:09:44;;;;;;;;;;;13.40;99.90;;;;;;5053485;28;20333;-60
2022/10/20 11:12:39;;;;;;;;;;;13.50;99.90;;;;;;5054030;28;19916;-60
2022/10/20 11:15:20;;;;;;;;;;;13.40;99.90;;;;;;5053991;28;20361;-60
2022/10/20 11:17:58;;;;;;;;;;;13.50;99.90;;;;;;5054375;28;19916;-60
2022/10/20 11:20:24;;;;;;;;;;;13.60;99.90;;;;;;5052623;28;19949;-60
2022/10/20 11:22:57;;;;;;;;;;;13.50;99.90;;;;;;5053651;28;19924;-60
2022/10/20 11:25:41;;;;;;;;;;;13.50;99.90;;;;;;5053108;28;20373;-60
2022/10/20 11:28:30;;;;;;;;;;;13.50;99.90;;;;;;5053950;28;20395;-60
2022/10/20 11:30:57;;;;;;;;;;;13.50;99.90;;;;;;5043964;28;19917;-60
2022/10/20 11:33:31;;;;;;;;;;;13.60;99.90;;;;;;5052921;28;19924;-66
2022/10/20 11:35:59;;;;;;;;;;;13.60;99.90;;;;;;5054317;28;19967;-67
2022/10/20 11:38:25;;;;;;;;;;;13.60;99.90;;;;;;5055235;28;19999;-67
2022/10/20 11:40:58;;;;;;;;;;;13.60;99.90;;;;;;5054185;28;19994;-68
2022/10/20 11:43:33;;;;;;;;;;;13.60;99.90;;;;;;5053966;28;19921;-67
2022/10/20 11:46:06;;;;;;;;;;;13.60;99.90;;;;;;5053923;28;19917;-67
2022/10/20 11:48:44;;;;;;;;;;;13.60;99.90;;;;;;5054188;28;19917;-67
2022/10/20 11:51:28;;;;;;;;;;;13.60;99.90;;;;;;5054037;28;19962;-67
2022/10/20 11:53:57;;;;;;;;;;;13.60;99.90;;;;;;5052720;28;20023;-68
2022/10/20 11:56:30;;;;;;;;;;;13.60;99.90;;;;;;5053731;28;19916;-69
2022/10/20 11:58:55;;;;;;;;;;;13.60;99.90;;;;;;5054203;28;20343;-67
2022/10/20 12:01:30;;;;;;;;;;;13.50;99.90;;;;;;5053638;28;20378;-67
2022/10/20 12:04:08;;;;;;;;;;;13.50;99.90;;;;;;5053338;28;20443;-67
2022/10/20 12:06:51;;;;;;;;;;;13.50;99.90;;;;;;5053639;28;19924;-60
2022/10/20 12:09:35;;;;;;;;;;;13.50;99.90;;;;;;5053852;28;20003;-60
2022/10/20 12:12:04;;;;;;;;;;;13.60;99.90;;;;;;5051880;28;19917;-61
2022/10/20 12:14:36;;;;;;;;;;;13.50;99.90;;;;;;5051843;28;19916;-61
2022/10/20 12:17:11;;;;;;;;;;;13.50;99.90;;;;;;5052570;28;19917;-60
2022/10/20 12:19:37;;;;;;;;;;;13.40;99.90;;;;;;5052958;28;19923;-61
2022/10/20 12:22:12;;;;;;;;;;;13.50;99.90;;;;;;5052795;28;19928;-61
2022/10/20 12:24:39;;;;;;;;;;;13.50;99.90;;;;;;5052329;28;20008;-60
2022/10/20 12:27:11;;;;;;;;;;;13.40;99.90;;;;;;5052407;28;20379;-60
2022/10/20 12:29:36;;;;;;;;;;;13.40;99.90;;;;;;5052260;28;19916;-60
2022/10/20 12:32:25;;;;;;;;;;;13.40;99.90;;;;;;5055483;28;19931;-61
2022/10/20 12:34:58;;;;;;;;;;;13.30;99.90;;;;;;5059233;28;19924;-60
2022/10/20 12:37:23;;;;;;;;;;;13.30;99.90;;;;;;5059286;28;20305;-66
2022/10/20 12:39:53;;;;;;;;;;;13.30;99.90;;;;;;5059303;28;19979;-66
2022/10/20 12:42:21;;;;;;;;;;;13.20;99.90;;;;;;5059267;28;19917;-66
2022/10/20 12:44:47;;;;;;;;;;;13.20;99.90;;;;;;5058213;28;20441;-67
2022/10/20 12:47:21;;;;;;;;;;;13.20;99.90;;;;;;5059941;28;20003;-66
2022/10/20 12:49:55;;;;;;;;;;;13.10;99.90;;;;;;5055039;28;19916;-66
2022/10/20 12:52:25;;;;;;;;;;;13.00;99.90;;;;;;5051816;28;20387;-67
2022/10/20 12:55:01;;;;;;;;;;;13.00;99.90;;;;;;5053413;28;19923;-67
2022/10/20 12:57:35;;;;;;;;;;;13.00;99.90;;;;;;5059212;28;20073;-66
2022/10/20 13:00:01;;;;;;;;;;;13.00;99.90;;;;;;5058931;28;20368;-67
2022/10/20 13:02:30;;;;;;;;;;;13.00;99.90;;;;;;5058626;28;19916;-66
2022/10/20 13:05:01;;;;;;;;;;;12.90;99.90;;;;;;5058384;28;20035;-67
2022/10/20 13:07:51;;;;;;;;;;;12.90;99.90;;;;;;5061199;28;19966;-67
2022/10/20 13:10:26;;;;;;;;;;;12.90;99.90;;;;;;5037943;28;19972;-67
2022/10/20 13:13:01;;;;;;;;;;;12.80;99.90;;;;;;5058087;28;19917;-68
2022/10/20 13:15:42;;;;;;;;;;;12.80;99.90;;;;;;5061368;28;19916;-67
2022/10/20 13:18:10;;;;;;;;;;;12.80;99.90;;;;;;5064754;28;19927;-67
2022/10/20 13:20:54;;;;;;;;;;;12.70;99.90;;;;;;5053473;28;19967;-67
2022/10/20 13:23:37;;;;;;;;;;;12.80;99.90;;;;;;5064536;28;19920;-68
2022/10/20 13:26:25;;;;;;;;;;;12.70;99.90;;;;;;5067090;28;19916;-67
2022/10/20 13:28:51;;;;;;;;;;;12.70;99.90;;;;;;5058237;28;19971;-67
2022/10/20 13:31:43;;;;;;;;;;;12.70;99.90;;;;;;5060058;28;20233;-66
2022/10/20 13:34:14;;;;;;;;;;;12.70;99.90;;;;;;5065364;28;19917;-67
2022/10/20 13:36:46;;;;;;;;;;;12.70;99.90;;;;;;5063177;28;20391;-68
2022/10/20 13:39:19;;;;;;;;;;;12.70;99.90;;;;;;5078568;28;20006;-68
2022/10/20 13:42:02;;;;;;;;;;;12.70;99.90;;;;;;5066038;28;19999;-67
2022/10/20 13:44:42;;;;;;;;;;;12.70;99.90;;;;;;5070603;28;19921;-67
2022/10/20 13:47:30;;;;;;;;;;;12.70;99.90;;;;;;5069674;28;20014;-68
2022/10/20 13:50:08;;;;;;;;;;;12.70;99.90;;;;;;5073973;28;19916;-68
2022/10/20 13:52:36;;;;;;;;;;;12.70;99.90;;;;;;5063798;28;19916;-68
2022/10/20 13:55:03;;;;;;;;;;;12.70;99.90;;;;;;5075349;28;19917;-68
2022/10/20 13:57:31;;;;;;;;;;;12.70;99.90;;;;;;5071548;28;19916;-67
2022/10/20 14:00:16;;;;;;;;;;;12.70;99.90;;;;;;5075570;28;19969;-68
2022/10/20 14:03:11;;;;;;;;;;;12.60;99.90;;;;;;5065878;28;19917;-68
2022/10/20 14:05:37;;;;;;;;;;;12.60;99.90;;;;;;5050626;28;19924;-67
2022/10/20 14:08:10;;;;;;;;;;;12.60;99.90;;;;;;5052407;28;19969;-68
2022/10/20 14:10:48;;;;;;;;;;;12.50;99.90;;;;;;5053793;28;20413;-68
2022/10/20 14:13:17;;;;;;;;;;;12.50;99.90;;;;;;5055641;28;20322;-68
2022/10/20 14:15:51;;;;;;;;;;;12.40;99.90;;;;;;5055566;28;19917;-68
2022/10/20 14:18:30;;;;;;;;;;;12.40;99.90;;;;;;5055810;28;20321;-69
2022/10/20 14:21:01;;;;;;;;;;;12.40;99.90;;;;;;5055691;28;19924;-68
2022/10/20 14:23:29;;;;;;;;;;;12.40;99.90;;;;;;5055670;28;19925;-69
2022/10/20 14:25:57;;;;;;;;;;;12.40;99.90;;;;;;5035215;28;19942;-69
2022/10/20 14:28:24;;;;;;;;;;;12.40;99.90;;;;;;5035002;28;19924;-70
2022/10/20 14:30:50;;;;;;;;;;;12.40;99.90;;;;;;5055932;28;19931;-68
2022/10/20 14:33:17;;;;;;;;;;;12.50;99.90;;;;;;5066560;28;19932;-68
2022/10/20 14:35:45;;;;;;;;;;;12.50;99.90;;;;;;5074396;28;19916;-68
2022/10/20 14:38:34;;;;;;;;;;;12.50;99.90;;;;;;5067544;28;19923;-69
2022/10/20 14:41:01;;;;;;;;;;;12.50;99.90;;;;;;5070134;28;19924;-69
2022/10/20 14:43:37;;;;;;;;;;;12.50;99.90;;;;;;5048292;28;19924;-69
2022/10/20 14:46:11;;;;;;;;;;;12.50;99.90;;;;;;5052354;28;19921;-69